createdAt,value
2022-09-02T00:02:31.478Z,98794.34
2022-09-02T00:07:33.735Z,98805.50
2022-09-02T00:12:35.739Z,98815.44
2022-09-02T00:17:38.203Z,98812.72
2022-09-02T00:22:44.109Z,98818.59
2022-09-02T00:27:46.540Z,98816.31
2022-09-02T00:32:49.264Z,98816.31
2022-09-02T00:37:52.641Z,98821.81
2022-09-02T00:42:56.264Z,98809.63
2022-09-02T00:47:58.419Z,98820.53
2022-09-02T00:53:06.373Z,98830.56
2022-09-02T00:58:16.566Z,98827.09
2022-09-02T01:03:21.679Z,98824.75
2022-09-02T01:08:36.590Z,98827.47
2022-09-02T01:13:42.119Z,98811.13
2022-09-02T01:18:49.857Z,98829.75
2022-09-02T01:23:53.333Z,98814.41
2022-09-02T01:28:55.461Z,98827.09
2022-09-02T01:33:58.229Z,98818.38
2022-09-02T01:39:00.395Z,98830.88
2022-09-02T01:44:03.404Z,98840.03
2022-09-02T01:49:05.667Z,98831.66
2022-09-02T01:54:07.920Z,98821.44
2022-09-02T01:59:11.862Z,98837.72
2022-09-02T02:04:14.565Z,98835.50
2022-09-02T02:09:19.437Z,98851.59
2022-09-02T02:14:22.713Z,98849.56
2022-09-02T02:19:25.709Z,98854.34
2022-09-02T02:24:28.074Z,98853.97
2022-09-02T02:29:30.194Z,98859.72
2022-09-02T02:34:33.237Z,98866.03
2022-09-02T02:39:36.031Z,98865.41
2022-09-02T02:44:39.466Z,98842.06
2022-09-02T02:49:43.714Z,98874.88
2022-09-02T02:54:46.003Z,98877.94
2022-09-02T02:59:48.295Z,98871.41
2022-09-02T03:04:54.352Z,98870.81
2022-09-02T03:09:57.832Z,98881.59
2022-09-02T03:15:00.200Z,98880.19
2022-09-02T03:20:07.774Z,98892.59
2022-09-02T03:25:16.620Z,98889.13
2022-09-02T03:30:25.343Z,98893.16
2022-09-02T03:35:29.335Z,98888.50
2022-09-02T03:40:32.823Z,98891.06
2022-09-02T03:45:35.143Z,98899.94
2022-09-02T03:50:44.040Z,98904.72
2022-09-02T03:55:51.329Z,98903.41
2022-09-02T04:00:55.950Z,98894.00
2022-09-02T04:05:59.953Z,98917.19
2022-09-02T04:11:09.266Z,98928.03
2022-09-02T04:16:15.070Z,98919.00
2022-09-02T04:21:17.280Z,98914.59
2022-09-02T04:26:20.565Z,98929.53
2022-09-02T04:31:28.869Z,98925.50
2022-09-02T04:36:32.553Z,98928.03
2022-09-02T04:41:38.179Z,98936.06
2022-09-02T04:46:43.672Z,98946.78
2022-09-02T04:51:50.718Z,98952.78
2022-09-02T04:56:53.140Z,98944.19
2022-09-02T05:01:56.764Z,98956.97
2022-09-02T05:07:02.976Z,98960.84
2022-09-02T05:12:08.300Z,98967.34
2022-09-02T05:17:17.836Z,98973.06
2022-09-02T05:22:21.012Z,98979.31
2022-09-02T05:27:23.907Z,98974.66
2022-09-02T05:32:30.886Z,98984.47
2022-09-02T05:37:36.689Z,98990.75
2022-09-02T05:42:40.747Z,98988.81
2022-09-02T05:47:43.343Z,98972.22
2022-09-02T05:52:46.236Z,98990.47
2022-09-02T05:57:48.632Z,98991.03
2022-09-02T06:02:51.009Z,98994.00
2022-09-02T06:07:59.108Z,99001.91
2022-09-02T06:13:01.379Z,99013.97
2022-09-02T06:18:07.130Z,99011.59
2022-09-02T06:23:13.784Z,99006.25
2022-09-02T06:28:17.283Z,99006.75
2022-09-02T06:33:21.930Z,99007.22
2022-09-02T06:38:25.175Z,99033.47
2022-09-02T06:43:28.351Z,99042.44
2022-09-02T06:48:56.260Z,99044.75
2022-09-02T06:54:00.746Z,99053.97
2022-09-02T06:59:07.483Z,99040.13
2022-09-02T07:04:51.250Z,99060.03
2022-09-02T07:09:57.263Z,99059.66
2022-09-02T07:14:59.553Z,99062.75
2022-09-02T07:20:07.302Z,99068.59
2022-09-02T07:25:23.892Z,99078.22
2022-09-02T07:30:26.766Z,99072.28
2022-09-02T07:35:38.563Z,99084.03
2022-09-02T07:40:43.410Z,99086.44
2022-09-02T07:45:47.205Z,99091.56
2022-09-02T07:50:50.133Z,99086.63
2022-09-02T07:55:53.639Z,99094.13
2022-09-02T08:00:59.550Z,99100.00
2022-09-02T08:06:02.255Z,99122.59
2022-09-02T08:11:04.899Z,99102.59
2022-09-02T08:16:07.775Z,99121.06
2022-09-02T08:21:11.684Z,99113.44
2022-09-02T08:26:13.808Z,99114.13
2022-09-02T08:31:16.617Z,99115.44
2022-09-02T08:36:19.269Z,99117.34
2022-09-02T08:41:26.961Z,99160.84
2022-09-02T08:46:32.363Z,99139.50
2022-09-02T08:51:37.892Z,99155.66
2022-09-02T08:56:41.767Z,99156.81
2022-09-02T09:01:44.483Z,99157.75
2022-09-02T09:07:01.771Z,99163.59
2022-09-02T09:12:39.988Z,99194.25
2022-09-02T09:17:50.439Z,99175.81
2022-09-02T09:22:57.018Z,99194.03
2022-09-02T09:28:00.322Z,99181.06
2022-09-02T09:33:04.260Z,99192.25
2022-09-02T09:38:13.410Z,99192.22
2022-09-02T09:43:16.220Z,99192.69
2022-09-02T09:48:31.705Z,99200.63
2022-09-02T09:53:35.937Z,99205.72
2022-09-02T09:58:40.738Z,99228.78
2022-09-02T10:03:48.217Z,99243.47
2022-09-02T10:09:14.136Z,99232.94
2022-09-02T10:14:16.221Z,99224.41
2022-09-02T10:19:30.412Z,99227.94
2022-09-02T10:25:04.609Z,99243.72
2022-09-02T10:30:20.543Z,99245.03
2022-09-02T10:35:38.008Z,99256.44
2022-09-02T10:41:13.993Z,99255.34
2022-09-02T10:46:21.707Z,99280.19
2022-09-02T10:51:42.593Z,99288.09
2022-09-02T10:57:22.349Z,99279.56
2022-09-02T11:02:30.886Z,99301.91
2022-09-02T11:07:55.848Z,99289.91
2022-09-02T11:13:09.892Z,99305.56
2022-09-02T11:18:49.107Z,99318.78
2022-09-02T11:24:09.036Z,99322.34
2022-09-02T11:29:21.011Z,99319.63
2022-09-02T11:34:40.955Z,99321.81
2022-09-02T11:39:56.506Z,99322.53
2022-09-02T11:45:39.330Z,99322.78
2022-09-02T11:50:47.391Z,99331.50
2022-09-02T11:56:01.623Z,99322.38
2022-09-02T12:01:15.723Z,99329.34
2022-09-02T12:06:20.270Z,99324.47
2022-09-02T12:11:42.442Z,99350.94
2022-09-02T12:17:03.903Z,99357.41
2022-09-02T12:22:18.239Z,99350.13
2022-09-02T12:27:27.060Z,99356.56
2022-09-02T12:32:50.472Z,99357.50
2022-09-02T12:38:15.312Z,99357.63
2022-09-02T12:43:27.938Z,99368.59
2022-09-02T12:48:42.231Z,99395.31
2022-09-02T12:53:50.536Z,99385.66
2022-09-02T12:58:58.901Z,99390.03
2022-09-02T13:04:13.307Z,99396.09
2022-09-02T13:09:34.073Z,99397.56
2022-09-02T13:15:00.563Z,99402.41
2022-09-02T13:20:02.654Z,99411.22
2022-09-02T13:25:14.393Z,99413.03
2022-09-02T13:30:41.725Z,99419.13
2022-09-02T13:35:44.586Z,99414.22
2022-09-02T13:40:46.718Z,99427.69
2022-09-02T13:45:50.439Z,99436.63
2022-09-02T13:50:55.589Z,99430.72
2022-09-02T13:55:59.566Z,99433.31
2022-09-02T14:01:20.623Z,99443.59
2022-09-02T14:06:27.907Z,99419.97
2022-09-02T14:11:38.217Z,99439.47
2022-09-02T14:16:40.455Z,99452.41
2022-09-02T14:21:48.631Z,99448.16
2022-09-02T14:26:53.838Z,99453.03
2022-09-02T14:32:14.600Z,99456.09
2022-09-02T14:37:28.611Z,99465.44
2022-09-02T14:42:30.915Z,99455.25
2022-09-02T14:47:38.127Z,99450.94
2022-09-02T14:52:48.151Z,99469.28
2022-09-02T14:58:02.600Z,99480.81
2022-09-02T15:03:07.188Z,99477.31
2022-09-02T15:08:10.154Z,99474.00
2022-09-02T15:13:24.920Z,99487.59
2022-09-02T15:18:27.079Z,99481.97
2022-09-02T15:23:31.602Z,99479.56
2022-09-02T15:28:38.556Z,99488.66
2022-09-02T15:33:42.096Z,99483.25
2022-09-02T15:38:44.358Z,99500.78
2022-09-02T15:43:48.388Z,99501.56
2022-09-02T15:48:51.120Z,99505.56
2022-09-02T15:53:57.912Z,99514.91
2022-09-02T15:59:09.548Z,99512.91
2022-09-02T16:04:13.532Z,99523.44
2022-09-02T16:09:17.581Z,99523.28
2022-09-02T16:14:21.431Z,99531.16
2022-09-02T16:19:27.834Z,99528.53
2022-09-02T16:24:35.492Z,99534.47
2022-09-02T16:29:39.560Z,99535.84
2022-09-02T16:34:41.688Z,99553.16
2022-09-02T16:39:44.049Z,99547.31
2022-09-02T16:44:46.490Z,99553.66
2022-09-02T16:49:54.389Z,99560.78
2022-09-02T16:54:57.468Z,99568.75
2022-09-02T16:59:59.962Z,99574.81
2022-09-02T17:05:02.266Z,99575.72
2022-09-02T17:10:06.084Z,99585.75
2022-09-02T17:15:08.742Z,99579.34
2022-09-02T17:20:13.292Z,99580.91
2022-09-02T17:25:15.979Z,99592.72
2022-09-02T17:30:18.255Z,99588.59
2022-09-02T17:35:20.968Z,99592.19
2022-09-02T17:40:41.693Z,99579.25
2022-09-02T17:45:44.630Z,99601.50
2022-09-02T17:50:48.488Z,99602.25
2022-09-02T17:55:54.332Z,99609.53
2022-09-02T18:01:01.293Z,99609.81
2022-09-02T18:06:21.865Z,99616.41
2022-09-02T18:11:24.760Z,99596.09
2022-09-02T18:17:04.150Z,99605.31
2022-09-02T18:22:16.500Z,99618.00
2022-09-02T18:27:24.613Z,99615.50
2022-09-02T18:33:02.843Z,99619.84
2022-09-02T18:38:28.237Z,99618.09
2022-09-02T18:44:10.088Z,99622.00
2022-09-02T18:49:15.519Z,99620.97
2022-09-02T18:54:48.059Z,99618.31
2022-09-02T19:00:04.570Z,99630.72
2022-09-02T19:05:12.013Z,99637.94
2022-09-02T19:10:14.981Z,99618.38
2022-09-02T19:15:18.197Z,99644.06
2022-09-02T19:20:20.494Z,99648.72
2022-09-02T19:25:26.753Z,99660.34
2022-09-02T19:30:36.062Z,99661.16
2022-09-02T19:35:46.751Z,99665.00
2022-09-02T19:40:49.645Z,99664.34
2022-09-02T19:45:51.968Z,99674.53
2022-09-02T19:50:55.239Z,99675.47
2022-09-02T19:55:58.902Z,99677.97
2022-09-02T20:01:03.167Z,99677.53
2022-09-02T20:06:06.059Z,99691.72
2022-09-02T20:11:08.215Z,99691.25
2022-09-02T20:16:21.849Z,99701.16
2022-09-02T20:21:30.740Z,99702.53
2022-09-02T20:26:45.104Z,99710.22
2022-09-02T20:32:08.263Z,99719.69
2022-09-02T20:37:38.628Z,99710.72
2022-09-02T20:42:57.047Z,99725.59
2022-09-02T20:48:35.284Z,99728.50
2022-09-02T20:54:14.233Z,99730.22
2022-09-02T20:59:27.471Z,99723.66
2022-09-02T21:04:39.144Z,99741.84
2022-09-02T21:09:48.374Z,99743.56
2022-09-02T21:15:13.279Z,99744.72
2022-09-02T21:20:38.221Z,99752.53
2022-09-02T21:25:52.281Z,99746.72
2022-09-02T21:31:09.345Z,99737.63
2022-09-02T21:36:18.121Z,99735.31
2022-09-02T21:41:37.265Z,99745.56
2022-09-02T21:46:39.384Z,99744.13
2022-09-02T21:52:02.925Z,99753.84
2022-09-02T21:57:26.705Z,99756.72
2022-09-02T22:02:28.785Z,99753.41
2022-09-02T22:07:34.451Z,99750.38
2022-09-02T22:12:41.334Z,99765.34
2022-09-02T22:17:56.250Z,99763.84
2022-09-02T22:23:05.779Z,99763.00
2022-09-02T22:28:19.438Z,99773.25
2022-09-02T22:33:27.963Z,99772.59
2022-09-02T22:38:38.065Z,99768.47
2022-09-02T22:43:47.528Z,99772.94
2022-09-02T22:49:16.988Z,99799.44
2022-09-02T22:54:19.055Z,99783.84
2022-09-02T22:59:30.769Z,99793.59
2022-09-02T23:04:32.902Z,99787.97
2022-09-02T23:09:37.958Z,99788.44
2022-09-02T23:15:19.734Z,99798.72
2022-09-02T23:20:30.810Z,99800.16
2022-09-02T23:26:03.936Z,99808.78
2022-09-02T23:31:12.932Z,99813.69
2022-09-02T23:36:34.471Z,99808.38
2022-09-02T23:41:38.097Z,99816.63
2022-09-02T23:47:00.483Z,99822.75
2022-09-02T23:52:21.348Z,99821.13
2022-09-02T23:57:55.968Z,99814.00
